createdAt,value
2023-04-21T00:02:27.543Z,4.10
2023-04-21T00:07:30.670Z,5.25
2023-04-21T00:12:33.125Z,6.45
2023-04-21T00:17:35.428Z,6.68
2023-04-21T00:22:37.713Z,4.57
2023-04-21T00:27:39.892Z,2.67
2023-04-21T00:32:42.126Z,2.67
2023-04-21T00:37:44.383Z,3.28
2023-04-21T00:42:46.829Z,3.10
2023-04-21T00:47:48.973Z,3.60
2023-04-21T00:52:53.277Z,7.18
2023-04-21T00:57:56.689Z,7.45
2023-04-21T01:03:03.313Z,3.55
2023-04-21T01:08:07.127Z,6.03
2023-04-21T01:13:09.271Z,4.60
2023-04-21T01:18:11.947Z,9.18
2023-04-21T01:23:17.647Z,4.00
2023-04-21T01:28:24.236Z,2.63
2023-04-21T01:33:27.416Z,3.30
2023-04-21T01:38:29.681Z,4.57
2023-04-21T01:43:34.685Z,3.88
2023-04-21T01:48:38.151Z,3.38
2023-04-21T01:53:41.615Z,3.45
2023-04-21T01:58:43.866Z,10.30
2023-04-21T02:03:46.458Z,5.28
2023-04-21T02:08:49.625Z,8.25
2023-04-21T02:13:55.997Z,11.32
2023-04-21T02:18:59.772Z,6.40
2023-04-21T02:24:02.809Z,4.53
2023-04-21T02:29:06.126Z,4.68
2023-04-21T02:34:08.471Z,4.75
2023-04-21T02:39:10.876Z,4.35
2023-04-21T02:44:13.738Z,4.75
2023-04-21T02:49:15.964Z,4.97
2023-04-21T02:54:18.203Z,2.90
2023-04-21T02:59:20.670Z,3.10
2023-04-21T03:04:24.514Z,3.63
2023-04-21T03:09:26.768Z,3.15
2023-04-21T03:14:28.880Z,5.93
2023-04-21T03:19:31.272Z,4.13
2023-04-21T03:24:33.599Z,3.63
2023-04-21T03:29:36.418Z,7.55
2023-04-21T03:34:38.613Z,3.92
2023-04-21T03:39:41.072Z,3.60
2023-04-21T03:44:43.186Z,4.53
2023-04-21T03:49:45.343Z,4.47
2023-04-21T03:54:47.598Z,6.32
2023-04-21T03:59:49.775Z,4.63
2023-04-21T04:04:52.095Z,9.20
2023-04-21T04:09:54.303Z,4.10
2023-04-21T04:14:56.563Z,7.43
2023-04-21T04:19:58.692Z,8.68
2023-04-21T04:25:02.218Z,2.33
2023-04-21T04:30:06.220Z,6.97
2023-04-21T04:35:09.606Z,3.03
2023-04-21T04:40:12.356Z,5.00
2023-04-21T04:45:14.904Z,7.97
2023-04-21T04:50:17.192Z,5.40
2023-04-21T04:55:20.734Z,8.95
2023-04-21T05:00:22.936Z,5.40
2023-04-21T05:05:25.425Z,5.70
2023-04-21T05:10:27.608Z,4.47
2023-04-21T05:15:30.279Z,9.77
2023-04-21T05:20:33.528Z,9.70
2023-04-21T05:25:38.644Z,11.32
2023-04-21T05:30:42.145Z,5.47
2023-04-21T05:35:44.364Z,7.50
2023-04-21T05:40:56.369Z,7.70
2023-04-21T05:45:58.692Z,6.80
2023-04-21T05:51:15.487Z,7.20
2023-04-21T05:56:17.687Z,15.15
2023-04-21T06:01:19.844Z,6.90
2023-04-21T06:06:22.027Z,9.55
2023-04-21T06:11:24.348Z,6.72
2023-04-21T06:16:27.229Z,6.22
2023-04-21T06:21:32.487Z,14.77
2023-04-21T06:26:34.849Z,7.07
2023-04-21T06:31:37.073Z,10.13
2023-04-21T06:36:39.260Z,8.13
2023-04-21T06:41:44.223Z,7.75
2023-04-21T06:46:47.389Z,7.72
2023-04-21T06:51:49.651Z,6.43
2023-04-21T06:56:52.820Z,3.47
2023-04-21T07:01:56.144Z,4.32
2023-04-21T07:06:59.237Z,8.55
2023-04-21T07:12:03.855Z,5.28
2023-04-21T07:17:06.366Z,7.30
2023-04-21T07:22:08.517Z,12.43
2023-04-21T07:27:10.907Z,13.90
2023-04-21T07:32:13.165Z,15.18
2023-04-21T07:37:16.440Z,10.15
2023-04-21T07:42:18.657Z,20.95
2023-04-21T07:47:20.924Z,19.60
2023-04-21T07:52:23.311Z,15.68
2023-04-21T07:57:25.596Z,18.00
2023-04-21T08:02:27.773Z,16.83
2023-04-21T08:07:30.354Z,19.48
2023-04-21T08:12:32.436Z,18.38
2023-04-21T08:17:35.121Z,13.25
2023-04-21T08:22:37.583Z,16.52
2023-04-21T08:27:40.246Z,15.05
2023-04-21T08:32:42.729Z,19.17
2023-04-21T08:37:45.661Z,13.35
2023-04-21T08:42:48.964Z,16.10
2023-04-21T08:47:52.009Z,15.88
2023-04-21T08:52:55.845Z,14.95
2023-04-21T08:57:58.359Z,17.10
2023-04-21T09:03:02.392Z,12.32
2023-04-21T09:08:18.508Z,15.88
2023-04-21T09:13:21.912Z,12.82
2023-04-21T09:18:25.861Z,21.75
2023-04-21T09:23:27.960Z,14.32
2023-04-21T09:28:34.485Z,15.75
2023-04-21T09:33:42.655Z,14.63
2023-04-21T09:44:07.250Z,10.93
2023-04-21T09:49:12.354Z,12.40
2023-04-21T09:59:28.287Z,16.05
2023-04-21T10:04:33.210Z,12.98
2023-04-21T10:09:43.406Z,15.55
2023-04-21T10:14:45.572Z,16.60
2023-04-21T10:19:59.963Z,10.40
2023-04-21T10:25:04.791Z,13.90
2023-04-21T10:30:19.085Z,13.15
2023-04-21T10:35:24.280Z,15.65
2023-04-21T10:45:41.798Z,16.50
2023-04-21T10:50:45.313Z,11.63
2023-04-21T10:55:49.604Z,16.38
2023-04-21T11:00:55.994Z,10.45
2023-04-21T11:05:58.156Z,15.77
2023-04-21T11:11:00.440Z,12.00
2023-04-21T11:16:05.534Z,14.50
2023-04-21T11:21:18.490Z,11.07
2023-04-21T11:26:38.510Z,9.63
2023-04-21T11:31:43.226Z,12.82
2023-04-21T11:36:47.077Z,9.18
2023-04-21T11:41:50.850Z,13.57
2023-04-21T11:46:53.124Z,14.57
2023-04-21T11:51:56.362Z,12.63
2023-04-21T11:57:00.613Z,7.32
2023-04-21T12:02:04.718Z,7.85
2023-04-21T12:07:06.823Z,13.20
2023-04-21T12:12:10.406Z,9.07
2023-04-21T12:17:12.463Z,15.90
2023-04-21T12:22:18.239Z,12.88
2023-04-21T12:27:21.123Z,11.65
2023-04-21T12:32:24.576Z,8.65
2023-04-21T12:37:26.769Z,9.88
2023-04-21T12:42:28.815Z,8.85
2023-04-21T12:47:31.169Z,10.60
2023-04-21T12:52:33.297Z,12.38
2023-04-21T12:57:35.919Z,10.38
2023-04-21T13:02:38.613Z,11.90
2023-04-21T13:07:41.580Z,12.40
2023-04-21T13:12:43.959Z,12.38
2023-04-21T13:17:47.038Z,11.32
2023-04-21T13:22:49.170Z,8.18
2023-04-21T13:27:53.353Z,10.32
2023-04-21T13:32:56.051Z,10.85
2023-04-21T13:37:58.238Z,10.90
2023-04-21T13:43:00.365Z,11.20
2023-04-21T13:48:02.552Z,10.38
2023-04-21T13:53:04.716Z,9.50
2023-04-21T13:58:06.885Z,8.82
2023-04-21T14:03:09.796Z,10.57
2023-04-21T14:08:12.077Z,10.90
2023-04-21T14:13:23.329Z,10.57
2023-04-21T14:18:36.422Z,9.35
2023-04-21T14:23:38.508Z,11.02
2023-04-21T14:28:40.831Z,8.85
2023-04-21T14:33:43.247Z,10.38
2023-04-21T14:38:45.361Z,12.98
2023-04-21T14:43:49.566Z,9.80
2023-04-21T14:48:52.032Z,12.02
2023-04-21T14:53:54.137Z,9.65
2023-04-21T14:58:56.232Z,11.98
2023-04-21T15:03:59.855Z,10.65
2023-04-21T15:09:02.943Z,12.65
2023-04-21T15:14:06.339Z,10.57
2023-04-21T15:19:08.460Z,11.45
2023-04-21T15:24:10.966Z,13.07
2023-04-21T15:29:13.116Z,12.63
2023-04-21T15:34:15.333Z,12.80
2023-04-21T15:39:17.612Z,13.52
2023-04-21T15:44:19.733Z,13.70
2023-04-21T15:49:23.745Z,14.93
2023-04-21T15:54:28.011Z,11.75
2023-04-21T15:59:31.067Z,12.23
2023-04-21T16:04:34.400Z,12.63
2023-04-21T16:09:36.807Z,11.60
2023-04-21T16:14:53.625Z,14.65
2023-04-21T16:19:59.362Z,13.13
2023-04-21T16:25:01.788Z,9.02
2023-04-21T16:30:07.405Z,11.80
2023-04-21T16:35:11.622Z,12.25
2023-04-21T16:40:14.108Z,10.95
2023-04-21T16:45:16.293Z,11.10
2023-04-21T16:50:18.620Z,12.93
2023-04-21T16:55:20.911Z,9.48
2023-04-21T17:00:23.203Z,13.95
2023-04-21T17:05:25.816Z,12.95
2023-04-21T17:10:28.068Z,12.40
2023-04-21T17:15:30.260Z,11.68
2023-04-21T17:20:32.650Z,11.48
2023-04-21T17:25:38.103Z,16.15
2023-04-21T17:30:40.201Z,14.43
2023-04-21T17:35:55.664Z,15.57
2023-04-21T17:41:06.791Z,15.75
2023-04-21T17:46:09.209Z,14.77
2023-04-21T17:51:11.790Z,13.68
2023-04-21T17:56:14.650Z,14.60
2023-04-21T18:01:17.157Z,15.27
2023-04-21T18:06:19.451Z,13.23
2023-04-21T18:11:21.666Z,13.60
2023-04-21T18:16:24.312Z,14.25
2023-04-21T18:21:27.393Z,13.18
2023-04-21T18:26:29.520Z,17.02
2023-04-21T18:31:32.906Z,17.73
2023-04-21T18:36:37.707Z,18.67
2023-04-21T18:41:40.777Z,18.88
2023-04-21T18:46:42.923Z,21.38
2023-04-21T18:51:45.232Z,13.20
2023-04-21T18:56:47.278Z,12.18
2023-04-21T19:01:49.847Z,11.40
2023-04-21T19:06:51.950Z,20.83
2023-04-21T19:11:54.069Z,14.68
2023-04-21T19:16:56.329Z,15.10
2023-04-21T19:21:58.974Z,20.88
2023-04-21T19:27:05.492Z,17.17
2023-04-21T19:32:07.703Z,17.52
2023-04-21T19:37:10.112Z,22.15
2023-04-21T19:42:12.321Z,19.10
2023-04-21T19:47:14.431Z,19.25
2023-04-21T19:52:16.523Z,19.10
2023-04-21T19:57:18.566Z,18.30
2023-04-21T20:02:20.816Z,16.17
2023-04-21T20:07:23.159Z,16.95
2023-04-21T20:12:25.458Z,17.17
2023-04-21T20:17:28.397Z,16.67
2023-04-21T20:22:30.915Z,19.25
2023-04-21T20:27:33.505Z,20.48
2023-04-21T20:32:36.648Z,20.05
2023-04-21T20:37:38.950Z,19.83
2023-04-21T20:42:45.163Z,17.02
2023-04-21T20:47:47.350Z,21.38
2023-04-21T20:52:51.033Z,21.33
2023-04-21T20:57:53.139Z,21.83
2023-04-21T21:02:55.464Z,18.65
2023-04-21T21:07:57.672Z,22.17
2023-04-21T21:12:59.995Z,18.35
2023-04-21T21:18:02.603Z,22.27
2023-04-21T21:23:04.990Z,18.75
2023-04-21T21:28:07.108Z,23.02
2023-04-21T21:33:09.395Z,27.38
2023-04-21T21:38:11.654Z,22.35
2023-04-21T21:43:13.988Z,21.58
2023-04-21T21:48:16.955Z,29.70
2023-04-21T21:53:19.156Z,22.67
2023-04-21T21:58:21.541Z,26.10
2023-04-21T22:03:23.858Z,27.02
2023-04-21T22:08:26.261Z,30.38
2023-04-21T22:13:28.444Z,27.98
2023-04-21T22:18:30.803Z,31.05
2023-04-21T22:23:32.958Z,29.75
2023-04-21T22:28:35.429Z,34.92
2023-04-21T22:33:37.665Z,33.72
2023-04-21T22:38:40.295Z,28.63
2023-04-21T22:43:42.407Z,27.60
2023-04-21T22:48:47.451Z,33.63
2023-04-21T22:53:51.064Z,32.47
2023-04-21T22:58:53.910Z,37.00
2023-04-21T23:03:56.544Z,36.67
2023-04-21T23:08:59.820Z,31.85
2023-04-21T23:14:04.458Z,29.98
2023-04-21T23:19:08.208Z,40.05
2023-04-21T23:24:11.928Z,32.08
2023-04-21T23:29:14.063Z,37.75
2023-04-21T23:34:16.155Z,30.63
2023-04-21T23:39:21.531Z,27.90
2023-04-21T23:44:48.769Z,24.02
2023-04-21T23:49:50.997Z,42.25
2023-04-21T23:54:55.532Z,30.77
